Time;durP1;ratioP1;P1;durP2;ratioP2;P2;SDS_P1;SDS_P2;PMS_P1;PMS_P2;Temp;Humidity;BMP_temperature;BMP_pressure;BME280_temperature;BME280_humidity;BME280_pressure;Samples;Min_cycle;Max_cycle;Signal;HPM_P1;HPM_P2
2023/05/04 00:01:10;;;;;;;5.23;4.73;;;19.00;44.10;;;;;;4925693;29;20201;-54
2023/05/04 00:03:36;;;;;;;5.20;4.70;;;19.00;44.10;;;;;;4928566;29;20812;-50
2023/05/04 00:06:02;;;;;;;4.93;4.53;;;18.90;44.30;;;;;;4923302;29;20452;-53
2023/05/04 00:08:27;;;;;;;5.20;3.87;;;18.90;44.30;;;;;;4931779;29;21400;-50
2023/05/04 00:10:54;;;;;;;4.80;4.30;;;18.90;44.60;;;;;;4930775;29;20594;-52
2023/05/04 00:13:20;;;;;;;6.67;4.23;;;18.80;45.20;;;;;;4930075;29;20216;-53
2023/05/04 00:15:46;;;;;;;5.47;4.50;;;18.80;44.70;;;;;;4922902;29;20612;-52
2023/05/04 00:18:11;;;;;;;6.53;5.30;;;18.90;44.90;;;;;;4927863;29;20244;-50
2023/05/04 00:20:37;;;;;;;5.90;4.90;;;18.90;44.60;;;;;;4927958;29;20327;-51
2023/05/04 00:23:03;;;;;;;6.07;4.93;;;18.90;44.40;;;;;;4924095;29;20641;-54
2023/05/04 00:25:28;;;;;;;4.50;4.10;;;18.90;44.50;;;;;;4925139;29;20197;-54
2023/05/04 00:27:54;;;;;;;4.47;4.07;;;18.70;44.40;;;;;;4924895;29;20357;-53
2023/05/04 00:30:19;;;;;;;5.50;4.90;;;18.50;45.30;;;;;;4926213;29;20193;-53
2023/05/04 00:32:45;;;;;;;4.60;4.20;;;18.60;45.20;;;;;;4934608;29;20206;-55
2023/05/04 00:35:11;;;;;;;4.93;4.40;;;18.50;44.70;;;;;;4925281;29;20201;-52
2023/05/04 00:37:37;;;;;;;4.57;4.00;;;18.30;45.00;;;;;;4927176;29;20248;-55
2023/05/04 00:40:03;;;;;;;7.37;4.70;;;18.30;45.10;;;;;;4928396;29;21404;-53
2023/05/04 00:42:28;;;;;;;6.30;4.73;;;18.30;45.00;;;;;;4930668;29;20189;-51
2023/05/04 00:44:54;;;;;;;5.13;4.70;;;18.40;45.20;;;;;;4924392;29;20197;-52
2023/05/04 00:47:20;;;;;;;5.90;4.73;;;18.50;45.00;;;;;;4927129;29;20231;-53
2023/05/04 00:49:46;;;;;;;7.27;5.43;;;18.30;44.90;;;;;;4925136;29;20201;-53
2023/05/04 00:52:14;;;;;;;5.50;5.00;;;17.90;46.20;;;;;;4927146;29;20441;-53
2023/05/04 00:54:45;;;;;;;4.47;4.07;;;18.10;46.10;;;;;;4925256;29;20280;-51
2023/05/04 00:57:11;;;;;;;7.57;5.27;;;18.10;46.00;;;;;;4939300;29;20546;-52
2023/05/04 00:59:38;;;;;;;4.90;4.47;;;18.20;45.90;;;;;;4923095;29;20556;-53
2023/05/04 01:02:03;;;;;;;6.33;4.70;;;18.20;45.80;;;;;;4920501;29;20493;-52
2023/05/04 01:04:29;;;;;;;5.40;4.40;;;18.30;45.80;;;;;;4916764;29;20433;-53
2023/05/04 01:07:06;;;;;;;7.93;4.93;;;18.20;45.70;;;;;;4933833;29;20197;-54
2023/05/04 01:09:41;;;;;;;6.90;4.70;;;18.30;45.90;;;;;;4917303;29;20291;-52
2023/05/04 01:12:16;;;;;;;5.93;4.67;;;18.40;45.20;;;;;;4930567;29;20454;-51
2023/05/04 01:14:43;;;;;;;5.10;4.60;;;18.50;45.30;;;;;;4938582;29;20528;-53
2023/05/04 01:17:10;;;;;;;4.90;4.50;;;18.50;44.80;;;;;;4930856;29;20526;-54
2023/05/04 01:19:36;;;;;;;9.70;5.33;;;18.40;44.70;;;;;;4928945;29;20780;-55
2023/05/04 01:22:02;;;;;;;6.43;5.03;;;18.30;45.50;;;;;;4925169;29;20456;-56
2023/05/04 01:24:28;;;;;;;4.93;4.30;;;18.30;45.00;;;;;;4927666;29;20562;-55
2023/05/04 01:27:06;;;;;;;4.80;4.40;;;18.30;45.00;;;;;;4931009;29;20609;-55
2023/05/04 01:29:32;;;;;;;4.97;4.47;;;18.30;45.00;;;;;;4924125;29;20437;-52
2023/05/04 01:31:58;;;;;;;5.13;4.37;;;18.20;45.10;;;;;;4925654;29;20444;-54
2023/05/04 01:34:24;;;;;;;5.40;4.90;;;18.30;45.20;;;;;;4925440;29;20338;-53
2023/05/04 01:36:50;;;;;;;5.30;4.80;;;18.30;45.30;;;;;;4918399;29;20907;-53
2023/05/04 01:39:16;;;;;;;4.87;4.47;;;18.20;45.30;;;;;;4926816;29;20196;-54
2023/05/04 01:41:42;;;;;;;5.20;4.70;;;18.20;45.80;;;;;;4927715;29;20823;-51
2023/05/04 01:44:07;;;;;;;5.13;4.73;;;18.20;45.20;;;;;;4927744;29;20201;-52
2023/05/04 01:46:33;;;;;;;10.10;6.20;;;18.30;45.20;;;;;;4923366;29;20215;-53
2023/05/04 01:48:58;;;;;;;5.40;4.90;;;18.20;44.90;;;;;;4927256;29;20664;-49
2023/05/04 01:51:24;;;;;;;6.97;4.73;;;18.20;44.70;;;;;;4921267;29;20256;-51
2023/05/04 01:53:50;;;;;;;6.10;5.50;;;18.10;45.20;;;;;;4927039;29;20224;-52
2023/05/04 01:56:15;;;;;;;5.63;4.70;;;18.00;45.40;;;;;;4925868;29;20204;-51
2023/05/04 01:58:41;;;;;;;6.40;5.57;;;17.90;45.90;;;;;;4927373;29;20232;-54
2023/05/04 02:01:07;;;;;;;7.03;5.30;;;17.50;46.50;;;;;;4922301;29;20224;-52
2023/05/04 02:03:32;;;;;;;6.13;5.57;;;17.30;47.10;;;;;;4924858;29;20184;-52
2023/05/04 02:05:58;;;;;;;5.63;5.03;;;17.20;47.50;;;;;;4923386;29;20200;-49
2023/05/04 02:08:23;;;;;;;5.33;4.83;;;17.30;47.50;;;;;;4922084;29;20606;-50
2023/05/04 02:10:49;;;;;;;7.80;5.07;;;17.40;47.30;;;;;;4921805;29;20255;-51
2023/05/04 02:13:14;;;;;;;11.40;5.03;;;17.40;47.10;;;;;;4923808;29;20201;-53
2023/05/04 02:15:40;;;;;;;6.83;5.77;;;17.40;47.00;;;;;;4922187;29;20561;-53
2023/05/04 02:18:06;;;;;;;5.63;5.10;;;17.50;47.00;;;;;;4923193;29;20236;-49
2023/05/04 02:20:31;;;;;;;5.00;4.60;;;17.50;46.80;;;;;;4919226;29;20212;-50
2023/05/04 02:22:57;;;;;;;6.87;5.53;;;17.50;46.70;;;;;;4925085;29;20772;-52
2023/05/04 02:25:22;;;;;;;6.50;5.80;;;17.60;46.50;;;;;;4917893;29;20197;-54
2023/05/04 02:27:48;;;;;;;6.77;5.37;;;17.60;46.20;;;;;;4913854;29;20200;-53
2023/05/04 02:30:14;;;;;;;6.27;5.67;;;17.50;46.10;;;;;;4923879;29;20536;-48
2023/05/04 02:32:40;;;;;;;6.73;5.53;;;17.40;46.10;;;;;;4919091;29;20196;-49
2023/05/04 02:35:05;;;;;;;6.50;5.07;;;17.40;46.40;;;;;;4923744;29;20204;-54
2023/05/04 02:37:31;;;;;;;6.80;6.00;;;17.40;46.50;;;;;;4929886;29;20692;-53
2023/05/04 02:39:56;;;;;;;6.10;5.60;;;17.40;46.50;;;;;;4917678;29;20193;-47
2023/05/04 02:42:22;;;;;;;5.73;5.13;;;17.40;46.50;;;;;;4934832;29;20200;-52
2023/05/04 02:44:48;;;;;;;6.90;6.10;;;17.30;46.70;;;;;;4926313;29;20204;-54
2023/05/04 02:47:13;;;;;;;6.60;5.73;;;17.30;46.70;;;;;;4920174;29;20204;-54
2023/05/04 02:49:39;;;;;;;8.23;5.60;;;17.30;46.60;;;;;;4925693;29;20188;-54
2023/05/04 02:52:05;;;;;;;6.73;5.50;;;17.30;46.60;;;;;;4924019;29;20292;-50
2023/05/04 02:54:30;;;;;;;6.20;5.30;;;17.30;46.80;;;;;;4928879;29;20208;-50
2023/05/04 02:56:56;;;;;;;5.80;4.97;;;17.30;47.70;;;;;;4919345;29;20211;-53
2023/05/04 02:59:21;;;;;;;6.00;5.30;;;17.20;47.20;;;;;;4920671;29;20202;-54
2023/05/04 03:01:47;;;;;;;8.10;5.47;;;17.20;47.20;;;;;;4922917;29;20208;-53
2023/05/04 03:04:12;;;;;;;5.57;5.03;;;17.20;47.10;;;;;;4923062;29;20248;-54
2023/05/04 03:06:38;;;;;;;6.30;5.70;;;17.20;47.00;;;;;;4929464;29;20192;-51
2023/05/04 03:09:04;;;;;;;6.17;5.60;;;17.20;47.10;;;;;;4926862;29;20240;-52
2023/05/04 03:11:29;;;;;;;7.57;5.43;;;17.10;47.10;;;;;;4935061;29;20204;-52
2023/05/04 03:13:55;;;;;;;5.90;5.37;;;17.10;47.10;;;;;;4932365;29;20197;-53
2023/05/04 03:16:20;;;;;;;6.27;5.67;;;17.10;47.00;;;;;;4929883;29;20201;-53
2023/05/04 03:18:46;;;;;;;6.77;6.17;;;17.10;47.00;;;;;;4931592;29;20315;-54
2023/05/04 03:21:12;;;;;;;7.83;6.37;;;17.00;46.90;;;;;;4928436;29;20197;-53
2023/05/04 03:23:37;;;;;;;7.90;5.93;;;17.00;47.50;;;;;;4926920;29;20193;-54
2023/05/04 03:26:03;;;;;;;6.50;5.60;;;17.00;47.20;;;;;;4926552;29;20652;-49
2023/05/04 03:28:28;;;;;;;6.17;5.60;;;16.90;47.30;;;;;;4926398;29;20201;-50
2023/05/04 03:30:54;;;;;;;6.60;6.00;;;16.80;47.50;;;;;;4925329;29;20283;-51
2023/05/04 03:33:20;;;;;;;6.80;6.20;;;16.80;47.60;;;;;;4925680;29;20208;-48
2023/05/04 03:35:45;;;;;;;9.63;6.13;;;16.80;47.60;;;;;;4929462;29;20236;-52
2023/05/04 03:38:11;;;;;;;6.70;6.00;;;16.80;47.70;;;;;;4926333;29;20247;-54
2023/05/04 03:40:37;;;;;;;6.10;5.60;;;16.80;48.00;;;;;;4927752;29;20197;-53
2023/05/04 03:43:02;;;;;;;5.70;5.10;;;16.70;48.30;;;;;;4930313;29;20558;-55
2023/05/04 03:45:28;;;;;;;6.80;6.20;;;16.70;48.20;;;;;;4916544;29;20204;-49
2023/05/04 03:47:55;;;;;;;7.73;6.40;;;16.80;47.90;;;;;;4924340;29;20212;-54
2023/05/04 03:50:21;;;;;;;6.00;5.43;;;16.80;47.80;;;;;;4927221;29;20228;-53
2023/05/04 03:52:47;;;;;;;6.60;5.97;;;16.80;47.60;;;;;;4915014;29;20848;-52
2023/05/04 03:55:13;;;;;;;7.40;6.27;;;16.80;47.70;;;;;;4925629;29;21077;-53
2023/05/04 03:57:38;;;;;;;6.53;6.00;;;16.80;47.90;;;;;;4921533;29;20543;-52
2023/05/04 04:00:05;;;;;;;6.27;5.77;;;16.80;48.00;;;;;;4931115;29;20209;-54
2023/05/04 04:02:30;;;;;;;6.90;5.57;;;16.80;48.00;;;;;;4923028;29;20280;-54
2023/05/04 04:04:56;;;;;;;6.00;5.40;;;16.80;48.10;;;;;;4930558;29;20535;-54
2023/05/04 04:07:22;;;;;;;5.80;5.10;;;16.80;48.10;;;;;;4929684;29;20197;-53
2023/05/04 04:09:51;;;;;;;6.00;5.40;;;16.80;48.20;;;;;;4928656;29;20257;-54
2023/05/04 04:12:19;;;;;;;6.00;5.40;;;16.80;48.00;;;;;;4930395;29;20196;-55
2023/05/04 04:14:47;;;;;;;7.67;5.73;;;16.80;48.10;;;;;;4925684;29;20452;-53
2023/05/04 04:17:13;;;;;;;6.50;5.80;;;16.80;48.00;;;;;;4921311;29;20492;-54
2023/05/04 04:19:39;;;;;;;9.60;6.67;;;16.70;48.00;;;;;;4923222;29;20784;-52
2023/05/04 04:22:05;;;;;;;6.20;5.57;;;16.70;48.00;;;;;;4924851;29;20189;-52
2023/05/04 04:24:31;;;;;;;6.50;5.27;;;16.80;48.20;;;;;;4921363;29;20213;-51
2023/05/04 04:26:56;;;;;;;6.37;5.77;;;16.70;48.20;;;;;;4922218;29;20287;-55
2023/05/04 04:29:22;;;;;;;6.13;5.57;;;16.70;48.30;;;;;;4924614;29;20455;-54
2023/05/04 04:31:48;;;;;;;6.40;5.60;;;16.80;48.30;;;;;;4927874;29;20251;-52
2023/05/04 04:34:13;;;;;;;6.20;5.67;;;16.80;48.20;;;;;;4927686;29;20193;-53
2023/05/04 04:36:39;;;;;;;7.57;6.10;;;16.80;48.20;;;;;;4922719;29;20263;-54
2023/05/04 04:39:05;;;;;;;10.90;5.97;;;16.70;48.20;;;;;;4918958;29;20238;-54
2023/05/04 04:41:31;;;;;;;7.93;5.77;;;16.70;48.30;;;;;;4926779;29;20836;-54
2023/05/04 04:43:57;;;;;;;6.73;5.93;;;16.50;48.80;;;;;;4923539;29;20810;-50
2023/05/04 04:46:23;;;;;;;7.20;6.47;;;16.40;49.20;;;;;;4924757;29;20447;-53
2023/05/04 04:48:49;;;;;;;8.43;7.10;;;16.40;49.30;;;;;;4925350;29;21100;-52
2023/05/04 04:51:14;;;;;;;6.77;6.17;;;16.50;49.40;;;;;;4923071;29;20193;-54
2023/05/04 04:53:40;;;;;;;7.57;6.77;;;16.50;49.20;;;;;;4928573;29;20446;-51
2023/05/04 04:56:09;;;;;;;7.37;6.30;;;16.50;49.20;;;;;;4931304;29;20203;-54
2023/05/04 04:58:34;;;;;;;9.63;6.27;;;16.50;49.30;;;;;;4930750;29;20224;-52
2023/05/04 05:01:03;;;;;;;8.50;7.70;;;16.60;49.40;;;;;;4933574;29;20456;-53
2023/05/04 05:03:28;;;;;;;7.53;6.83;;;16.60;49.50;;;;;;4928318;29;20960;-52
2023/05/04 05:05:54;;;;;;;7.53;6.27;;;16.70;49.30;;;;;;4919038;29;20456;-52
2023/05/04 05:08:20;;;;;;;9.23;7.30;;;16.70;49.10;;;;;;4919279;29;20271;-53
2023/05/04 05:10:46;;;;;;;6.90;6.20;;;16.60;50.10;;;;;;4925132;29;20800;-52
2023/05/04 05:13:11;;;;;;;7.00;6.40;;;16.50;49.70;;;;;;4933719;29;20207;-53
2023/05/04 05:15:37;;;;;;;7.53;6.63;;;16.40;50.10;;;;;;4930439;29;20668;-54
2023/05/04 05:18:02;;;;;;;9.40;7.23;;;16.00;50.60;;;;;;4927421;29;20560;-53
2023/05/04 05:20:28;;;;;;;8.00;7.20;;;15.70;51.00;;;;;;4923097;29;20244;-54
2023/05/04 05:22:54;;;;;;;8.47;7.60;;;15.20;52.90;;;;;;4931641;29;20676;-53
2023/05/04 05:25:19;;;;;;;9.03;8.10;;;15.40;53.00;;;;;;4929398;29;20193;-52
2023/05/04 05:27:45;;;;;;;8.10;7.20;;;15.60;52.40;;;;;;4917903;29;20193;-54
2023/05/04 05:30:11;;;;;;;10.67;7.00;;;15.80;52.20;;;;;;4920493;29;20200;-53
2023/05/04 05:32:37;;;;;;;7.80;6.93;;;15.90;51.90;;;;;;4920520;28;20204;-53
2023/05/04 05:35:03;;;;;;;9.33;7.20;;;16.00;51.90;;;;;;4920832;29;20201;-54
2023/05/04 05:37:31;;;;;;;9.13;7.50;;;16.00;51.70;;;;;;4920909;29;20890;-53
2023/05/04 05:39:56;;;;;;;8.90;7.90;;;15.80;52.00;;;;;;4925199;29;20613;-53
2023/05/04 05:42:22;;;;;;;8.27;7.40;;;15.60;52.40;;;;;;4924825;29;21231;-52
2023/05/04 05:44:55;;;;;;;8.60;7.70;;;15.40;53.00;;;;;;4928080;29;20201;-55
2023/05/04 05:47:21;;;;;;;11.67;7.20;;;15.10;54.00;;;;;;4928266;29;20457;-54
2023/05/04 05:49:46;;;;;;;8.13;7.33;;;15.10;54.20;;;;;;4923050;29;20920;-56
2023/05/04 05:52:12;;;;;;;9.90;8.20;;;15.10;54.50;;;;;;4926161;29;20668;-54
2023/05/04 05:54:38;;;;;;;10.47;8.17;;;14.90;54.80;;;;;;4927709;29;20229;-52
2023/05/04 05:57:03;;;;;;;8.33;6.63;;;14.80;55.10;;;;;;4927471;29;20207;-50
2023/05/04 05:59:29;;;;;;;9.00;8.03;;;14.80;55.50;;;;;;4924450;29;20201;-54
2023/05/04 06:01:55;;;;;;;11.60;8.40;;;15.10;55.30;;;;;;4926717;29;20185;-54
2023/05/04 06:04:20;;;;;;;7.90;7.20;;;15.10;55.00;;;;;;4925061;29;20449;-51
2023/05/04 06:06:46;;;;;;;11.47;9.60;;;15.30;55.10;;;;;;4928422;29;20207;-50
2023/05/04 06:09:11;;;;;;;9.30;8.47;;;15.30;55.10;;;;;;4925162;29;20693;-49
2023/05/04 06:11:37;;;;;;;9.17;8.30;;;15.20;55.10;;;;;;4928981;29;20774;-54
2023/05/04 06:14:02;;;;;;;9.90;8.90;;;15.40;55.30;;;;;;4925579;29;20205;-54
2023/05/04 06:16:28;;;;;;;9.73;8.70;;;15.60;55.10;;;;;;4921093;29;20197;-56
2023/05/04 06:18:54;;;;;;;9.77;8.77;;;15.80;54.70;;;;;;4922979;29;20692;-54
2023/05/04 06:21:19;;;;;;;9.13;8.20;;;15.80;54.70;;;;;;4931075;29;20614;-54
2023/05/04 06:23:45;;;;;;;11.60;10.00;;;16.00;55.10;;;;;;4918666;29;20209;-53
2023/05/04 06:26:11;;;;;;;10.13;9.20;;;16.20;54.90;;;;;;4921859;29;20452;-53
2023/05/04 06:28:37;;;;;;;11.73;9.60;;;16.30;54.30;;;;;;4920403;29;20440;-56
2023/05/04 06:31:02;;;;;;;12.60;9.60;;;16.40;54.10;;;;;;4925924;29;20200;-55
2023/05/04 06:33:28;;;;;;;10.17;9.20;;;16.40;54.20;;;;;;4925963;29;20202;-51
2023/05/04 06:35:53;;;;;;;10.87;9.10;;;16.40;54.30;;;;;;4929753;29;20215;-56
2023/05/04 06:38:20;;;;;;;12.50;10.17;;;16.50;54.30;;;;;;4929621;29;20233;-52
2023/05/04 06:40:46;;;;;;;9.77;8.97;;;16.60;54.10;;;;;;4933470;29;20217;-56
2023/05/04 06:43:11;;;;;;;12.13;10.27;;;16.80;53.60;;;;;;4912406;29;20463;-55
2023/05/04 06:45:38;;;;;;;11.60;9.37;;;16.90;53.50;;;;;;4928606;29;21042;-53
2023/05/04 06:48:04;;;;;;;10.33;9.23;;;17.00;53.20;;;;;;4925613;29;20188;-55
2023/05/04 06:50:31;;;;;;;10.53;9.40;;;17.20;53.60;;;;;;4927494;29;20440;-56
2023/05/04 06:53:09;;;;;;;12.10;10.70;;;17.40;53.10;;;;;;4923471;29;20504;-56
2023/05/04 06:55:36;;;;;;;10.13;8.93;;;17.70;52.40;;;;;;4919820;29;20448;-56
2023/05/04 06:58:02;;;;;;;14.20;9.67;;;18.00;51.60;;;;;;4927219;29;20523;-56
2023/05/04 07:00:28;;;;;;;11.50;10.30;;;18.10;51.70;;;;;;4925860;29;21063;-55
2023/05/04 07:02:54;;;;;;;9.60;8.80;;;18.50;51.30;;;;;;4924895;29;20485;-54
2023/05/04 07:05:21;;;;;;;9.93;8.90;;;18.60;50.60;;;;;;4932075;29;20660;-55
2023/05/04 07:07:47;;;;;;;9.90;9.10;;;18.50;50.40;;;;;;4929422;29;20201;-55
2023/05/04 07:10:13;;;;;;;11.50;10.30;;;18.60;50.50;;;;;;4923374;29;20472;-54
2023/05/04 07:12:40;;;;;;;10.03;9.13;;;18.70;50.50;;;;;;4930036;29;20200;-55
2023/05/04 07:15:07;;;;;;;9.00;8.20;;;18.80;50.10;;;;;;4932280;29;20475;-56
2023/05/04 07:17:33;;;;;;;10.13;9.23;;;18.90;49.70;;;;;;4924695;29;21047;-54
2023/05/04 07:20:01;;;;;;;9.97;9.07;;;19.10;49.40;;;;;;4930121;29;20444;-55
2023/05/04 07:22:26;;;;;;;9.40;8.50;;;19.20;49.30;;;;;;4930768;29;20204;-51
2023/05/04 07:24:52;;;;;;;8.83;7.97;;;19.50;49.70;;;;;;4931044;29;20448;-53
2023/05/04 07:27:17;;;;;;;9.40;8.60;;;19.80;49.50;;;;;;4928078;29;20205;-56
2023/05/04 07:29:43;;;;;;;10.97;9.47;;;20.10;48.00;;;;;;4930785;29;20216;-54
2023/05/04 07:32:08;;;;;;;10.27;9.27;;;20.20;47.70;;;;;;4933911;29;20211;-54
2023/05/04 07:34:34;;;;;;;9.40;8.50;;;20.20;47.30;;;;;;4931940;29;20648;-54
2023/05/04 07:37:03;;;;;;;9.93;8.93;;;20.00;47.20;;;;;;4916719;29;20197;-56
2023/05/04 07:39:29;;;;;;;8.63;7.83;;;20.20;47.20;;;;;;4928595;29;20196;-55
2023/05/04 07:41:54;;;;;;;9.80;8.57;;;20.20;46.80;;;;;;4926716;29;20448;-55
2023/05/04 07:44:20;;;;;;;8.77;7.93;;;20.20;47.20;;;;;;4933746;29;20218;-54
2023/05/04 07:46:45;;;;;;;8.70;7.93;;;20.30;46.80;;;;;;4926358;29;20555;-51
2023/05/04 07:49:11;;;;;;;8.90;8.20;;;20.30;46.60;;;;;;4932989;29;20208;-53
2023/05/04 07:51:38;;;;;;;8.20;7.40;;;20.20;46.80;;;;;;4933778;29;20208;-54
2023/05/04 07:54:03;;;;;;;9.30;8.40;;;20.50;47.10;;;;;;4933005;29;20583;-54
2023/05/04 07:56:29;;;;;;;7.53;6.93;;;20.60;46.00;;;;;;4923339;29;20456;-54
2023/05/04 07:58:54;;;;;;;8.43;7.73;;;20.80;46.10;;;;;;4926373;29;20243;-53
2023/05/04 08:01:20;;;;;;;8.10;7.40;;;21.00;45.20;;;;;;4923705;29;20197;-55
2023/05/04 08:03:46;;;;;;;8.43;7.37;;;21.00;45.20;;;;;;4919593;29;20224;-57
2023/05/04 08:06:12;;;;;;;10.90;7.37;;;21.20;45.30;;;;;;4923184;29;20200;-55
2023/05/04 08:08:37;;;;;;;7.50;6.73;;;21.30;44.80;;;;;;4920056;29;20484;-57
2023/05/04 08:11:03;;;;;;;8.23;7.43;;;21.20;45.10;;;;;;4905258;29;20686;-54
2023/05/04 08:13:29;;;;;;;8.10;7.33;;;21.40;44.90;;;;;;4913268;29;20195;-57
2023/05/04 08:15:59;;;;;;;8.03;6.87;;;21.50;44.50;;;;;;4907519;29;20197;-58
2023/05/04 08:18:26;;;;;;;6.97;6.37;;;21.70;44.40;;;;;;4906239;29;20360;-58
2023/05/04 08:20:52;;;;;;;9.10;7.73;;;22.10;43.80;;;;;;4909245;29;20445;-58
2023/05/04 08:23:18;;;;;;;7.90;7.10;;;22.30;42.90;;;;;;4905716;29;20460;-53
2023/05/04 08:25:43;;;;;;;7.30;6.60;;;22.60;42.70;;;;;;4901972;29;20345;-58
2023/05/04 08:28:09;;;;;;;8.63;6.20;;;22.80;41.90;;;;;;4904679;29;20197;-57
2023/05/04 08:30:37;;;;;;;10.43;6.40;;;22.70;41.80;;;;;;4903932;29;20209;-58
2023/05/04 08:33:03;;;;;;;7.90;5.77;;;22.80;41.80;;;;;;4923341;29;20284;-58
2023/05/04 08:35:29;;;;;;;6.67;6.07;;;23.10;41.30;;;;;;4901495;29;20450;-53
2023/05/04 08:37:55;;;;;;;6.33;5.40;;;23.00;40.60;;;;;;4907893;29;20489;-58
2023/05/04 08:40:22;;;;;;;5.20;4.80;;;23.40;40.60;;;;;;4909402;29;20197;-56
2023/05/04 08:42:50;;;;;;;6.20;5.70;;;23.40;39.80;;;;;;4908006;29;20457;-56
2023/05/04 08:45:16;;;;;;;5.73;5.33;;;23.50;39.50;;;;;;4904894;29;22640;-56
2023/05/04 08:47:42;;;;;;;5.47;4.97;;;23.70;38.80;;;;;;4905413;29;20461;-56
2023/05/04 08:50:09;;;;;;;4.97;4.50;;;23.70;38.80;;;;;;4907406;29;20450;-56
2023/05/04 08:52:37;;;;;;;5.03;4.67;;;23.80;38.90;;;;;;4905376;29;20457;-57
2023/05/04 08:55:04;;;;;;;5.60;5.07;;;24.00;39.00;;;;;;4909454;29;20449;-56
2023/05/04 08:57:30;;;;;;;4.90;4.50;;;24.10;38.00;;;;;;4909903;29;20476;-57
2023/05/04 08:59:58;;;;;;;5.13;4.63;;;24.30;38.30;;;;;;4906179;29;20461;-58
2023/05/04 09:02:25;;;;;;;4.90;4.40;;;24.70;38.30;;;;;;4903958;29;20548;-58
2023/05/04 09:04:51;;;;;;;5.13;4.70;;;24.90;37.30;;;;;;4907042;29;20532;-58
2023/05/04 09:07:18;;;;;;;5.07;4.70;;;24.80;36.00;;;;;;4909530;29;20840;-56
2023/05/04 09:09:45;;;;;;;4.70;4.40;;;25.00;36.20;;;;;;4909820;29;20503;-57
2023/05/04 09:12:11;;;;;;;4.43;4.03;;;24.60;34.70;;;;;;4911788;29;20453;-59
2023/05/04 09:14:37;;;;;;;4.83;4.47;;;24.40;36.50;;;;;;4906282;29;20485;-55
2023/05/04 09:17:11;;;;;;;5.47;4.27;;;24.30;35.70;;;;;;4903797;29;20489;-57
2023/05/04 09:19:37;;;;;;;4.63;4.33;;;24.50;35.90;;;;;;4906520;29;20200;-57
2023/05/04 09:22:16;;;;;;;4.90;4.50;;;24.60;35.50;;;;;;4905166;29;20452;-57
2023/05/04 09:24:42;;;;;;;4.50;4.20;;;24.70;35.50;;;;;;4905337;29;20461;-57
2023/05/04 09:27:10;;;;;;;4.37;4.07;;;24.90;36.00;;;;;;4904930;29;20468;-59
2023/05/04 09:29:39;;;;;;;4.10;3.83;;;24.90;35.40;;;;;;4909699;29;20933;-59
2023/05/04 09:32:08;;;;;;;4.80;4.40;;;24.90;36.40;;;;;;4906746;29;20479;-60
2023/05/04 09:34:36;;;;;;;4.97;4.57;;;25.00;34.60;;;;;;4907157;29;20937;-59
2023/05/04 09:37:02;;;;;;;4.90;4.50;;;25.10;34.50;;;;;;4906587;29;20450;-59
2023/05/04 09:39:29;;;;;;;5.03;4.63;;;25.00;34.60;;;;;;4895444;29;20816;-59
2023/05/04 09:41:55;;;;;;;5.13;4.73;;;25.30;35.00;;;;;;4906553;29;20458;-59
2023/05/04 09:44:22;;;;;;;5.17;4.77;;;25.60;35.60;;;;;;4906900;29;20459;-56
2023/05/04 09:46:55;;;;;;;5.13;4.73;;;25.50;34.80;;;;;;4903012;29;20461;-57
2023/05/04 09:49:35;;;;;;;4.70;4.30;;;25.40;33.60;;;;;;4904276;29;20543;-59
2023/05/04 09:52:02;;;;;;;4.77;4.37;;;25.40;33.10;;;;;;4909649;29;20445;-59
2023/05/04 09:54:33;;;;;;;5.27;4.90;;;25.50;34.00;;;;;;4906759;29;20506;-58
2023/05/04 09:57:13;;;;;;;4.93;4.43;;;25.70;33.00;;;;;;4908618;29;20544;-59
2023/05/04 09:59:40;;;;;;;4.90;4.37;;;25.80;32.50;;;;;;4902033;29;20465;-59
2023/05/04 10:02:12;;;;;;;4.10;3.53;;;26.10;32.50;;;;;;4898944;29;20449;-59
2023/05/04 10:04:38;;;;;;;5.80;4.60;;;26.50;32.50;;;;;;4895294;29;20492;-55
2023/05/04 10:07:04;;;;;;;3.80;3.47;;;25.90;31.00;;;;;;4905017;29;20529;-56
2023/05/04 10:09:31;;;;;;;4.77;4.40;;;25.70;30.40;;;;;;4911033;29;20551;-55
2023/05/04 10:11:59;;;;;;;4.30;4.00;;;26.00;30.70;;;;;;4930076;29;20815;-57
2023/05/04 10:14:25;;;;;;;4.80;4.03;;;25.70;30.20;;;;;;4925629;29;20441;-56
2023/05/04 10:17:01;;;;;;;3.30;3.10;;;25.40;30.30;;;;;;4921524;29;20454;-57
2023/05/04 10:19:43;;;;;;;4.50;4.10;;;25.40;30.70;;;;;;4917658;29;20464;-58
2023/05/04 10:22:46;;;;;;;4.10;3.70;;;25.20;30.20;;;;;;4922428;29;20878;-56
2023/05/04 10:25:42;;;;;;;4.23;3.93;;;25.40;30.60;;;;;;4926499;29;20467;-57
2023/05/04 10:28:55;;;;;;;4.23;3.83;;;25.60;30.80;;;;;;4922523;29;20488;-58
2023/05/04 10:31:21;;;;;;;4.13;3.43;;;26.10;29.70;;;;;;4850556;29;20567;-57
2023/05/04 10:33:47;;;;;;;4.10;3.60;;;26.50;30.00;;;;;;4849634;29;20968;-57
2023/05/04 10:36:13;;;;;;;3.60;3.30;;;26.90;29.40;;;;;;4889892;29;20215;-58
2023/05/04 10:38:40;;;;;;;4.00;3.70;;;26.80;28.90;;;;;;4921749;29;20243;-57
2023/05/04 10:41:22;;;;;;;4.17;3.63;;;26.80;29.10;;;;;;4925996;29;20204;-56
2023/05/04 10:43:49;;;;;;;4.07;3.77;;;27.10;28.80;;;;;;4925488;29;20477;-57
2023/05/04 10:46:22;;;;;;;5.00;4.13;;;27.10;29.40;;;;;;4930943;29;20447;-57
2023/05/04 10:48:48;;;;;;;4.83;4.43;;;27.00;29.30;;;;;;4924462;29;20433;-57
2023/05/04 10:51:24;;;;;;;5.47;4.00;;;26.40;29.30;;;;;;4926550;29;20444;-56
2023/05/04 10:53:50;;;;;;;5.53;4.03;;;26.30;29.60;;;;;;4917985;29;20448;-56
2023/05/04 10:56:21;;;;;;;4.27;3.87;;;26.30;29.20;;;;;;4917667;29;20520;-57
2023/05/04 10:58:47;;;;;;;4.13;3.83;;;26.10;29.60;;;;;;4920916;29;20511;-57
2023/05/04 11:01:12;;;;;;;4.93;4.50;;;26.30;30.00;;;;;;4926037;29;20441;-57
2023/05/04 11:03:42;;;;;;;4.77;4.03;;;26.60;30.00;;;;;;4917989;29;20201;-57
2023/05/04 11:06:24;;;;;;;4.00;3.70;;;26.80;29.40;;;;;;4922546;29;20312;-57
2023/05/04 11:09:00;;;;;;;4.00;3.60;;;27.00;28.60;;;;;;4923564;29;20991;-57
2023/05/04 11:11:26;;;;;;;4.00;3.70;;;27.20;28.10;;;;;;4929471;29;20455;-50
2023/05/04 11:13:53;;;;;;;3.93;3.47;;;27.40;27.70;;;;;;4921849;29;20452;-55
2023/05/04 11:16:26;;;;;;;8.07;4.03;;;27.60;28.00;;;;;;4925001;29;20306;-54
2023/05/04 11:18:52;;;;;;;3.73;3.50;;;27.80;28.50;;;;;;4915887;29;20551;-54
2023/05/04 11:21:27;;;;;;;4.87;3.70;;;27.80;28.10;;;;;;4928294;29;20445;-55
2023/05/04 11:23:54;;;;;;;4.63;4.30;;;27.60;28.60;;;;;;4918022;29;20863;-55
2023/05/04 11:26:20;;;;;;;4.97;4.57;;;26.90;28.00;;;;;;4926249;29;20535;-55
2023/05/04 11:28:46;;;;;;;4.40;4.00;;;26.80;28.40;;;;;;4931355;29;22342;-54
2023/05/04 11:31:12;;;;;;;3.70;3.50;;;26.60;27.40;;;;;;4927733;29;20570;-53
2023/05/04 11:33:46;;;;;;;4.90;4.50;;;26.60;28.50;;;;;;4921768;29;20200;-53
2023/05/04 11:36:12;;;;;;;4.20;3.90;;;26.80;28.00;;;;;;4930382;29;20444;-54
2023/05/04 11:38:38;;;;;;;3.50;3.20;;;26.90;27.70;;;;;;4931651;29;20563;-52
2023/05/04 11:41:04;;;;;;;3.87;3.57;;;27.00;28.00;;;;;;4925237;29;20677;-53
2023/05/04 11:43:32;;;;;;;5.80;3.60;;;27.20;28.40;;;;;;4926529;29;20562;-55
2023/05/04 11:45:59;;;;;;;4.30;3.93;;;27.30;27.70;;;;;;4929177;29;20448;-54
2023/05/04 11:48:27;;;;;;;4.03;3.67;;;27.30;27.20;;;;;;4924641;29;20456;-52
2023/05/04 11:50:54;;;;;;;3.30;3.10;;;27.50;26.90;;;;;;4924087;29;20461;-54
2023/05/04 11:53:21;;;;;;;5.33;4.13;;;27.80;26.50;;;;;;4926606;29;20441;-55
2023/05/04 11:55:48;;;;;;;4.10;3.80;;;28.30;26.60;;;;;;4924724;29;20448;-55
2023/05/04 11:58:14;;;;;;;3.70;3.40;;;28.30;26.50;;;;;;4933404;29;20551;-54
2023/05/04 12:00:41;;;;;;;6.70;5.03;;;28.10;27.90;;;;;;4928578;29;20452;-55
2023/05/04 12:03:08;;;;;;;5.43;3.73;;;27.70;27.00;;;;;;4928574;29;20209;-56
2023/05/04 12:05:35;;;;;;;3.43;3.13;;;28.00;27.60;;;;;;4926078;29;20539;-57
2023/05/04 12:08:02;;;;;;;4.90;4.50;;;28.50;28.80;;;;;;4920892;29;20448;-57
2023/05/04 12:10:33;;;;;;;4.97;4.47;;;28.70;26.90;;;;;;4928450;29;20877;-57
2023/05/04 12:13:02;;;;;;;4.50;4.20;;;28.30;27.50;;;;;;4928147;29;20452;-56
2023/05/04 12:15:33;;;;;;;5.33;4.63;;;28.60;27.40;;;;;;4924679;29;20447;-58
2023/05/04 12:17:59;;;;;;;4.30;4.00;;;28.80;27.50;;;;;;4920153;29;20496;-58
2023/05/04 12:20:29;;;;;;;4.33;4.03;;;28.70;27.70;;;;;;4924292;29;20531;-58
2023/05/04 12:22:56;;;;;;;5.10;4.70;;;29.20;28.10;;;;;;4928133;29;20786;-58
2023/05/04 12:25:24;;;;;;;5.17;4.60;;;28.20;27.60;;;;;;4918761;29;20983;-58
2023/05/04 12:27:50;;;;;;;5.87;5.37;;;28.20;29.00;;;;;;4919147;29;20457;-58
2023/05/04 12:30:16;;;;;;;5.93;5.53;;;28.50;28.30;;;;;;4916208;29;20453;-58
2023/05/04 12:32:43;;;;;;;4.13;3.83;;;29.10;27.70;;;;;;4920562;29;20197;-58
2023/05/04 12:35:09;;;;;;;4.97;4.57;;;28.80;28.10;;;;;;4928494;29;20442;-58
2023/05/04 12:37:35;;;;;;;4.60;4.30;;;28.90;28.20;;;;;;4930826;29;20628;-58
2023/05/04 12:40:01;;;;;;;4.17;3.87;;;29.40;26.80;;;;;;4927697;29;20522;-58
2023/05/04 12:42:26;;;;;;;3.90;3.70;;;29.80;27.50;;;;;;4918797;29;20279;-58
2023/05/04 12:44:52;;;;;;;4.60;4.20;;;30.30;27.00;;;;;;4929756;29;20890;-58